sensor_id;sensor_type;location;lat;lon;timestamp;P1;durP1;ratioP1;P2;durP2;ratioP2
28577;SDS011;15769;52.248;15.818;2022-07-29T00:04:43;7.60;;;3.00;;
28577;SDS011;15769;52.248;15.818;2022-07-29T00:09:46;3.97;;;2.60;;
28577;SDS011;15769;52.248;15.818;2022-07-29T00:14:55;5.38;;;2.63;;
28577;SDS011;15769;52.248;15.818;2022-07-29T00:20:00;6.28;;;2.58;;
28577;SDS011;15769;52.248;15.818;2022-07-29T00:25:02;8.93;;;2.90;;
28577;SDS011;15769;52.248;15.818;2022-07-29T00:30:08;11.02;;;3.55;;
28577;SDS011;15769;52.248;15.818;2022-07-29T00:35:11;6.88;;;3.08;;
28577;SDS011;15769;52.248;15.818;2022-07-29T00:40:34;11.27;;;3.80;;
28577;SDS011;15769;52.248;15.818;2022-07-29T00:45:45;14.45;;;5.30;;
28577;SDS011;15769;52.248;15.818;2022-07-29T00:50:49;14.75;;;4.90;;
28577;SDS011;15769;52.248;15.818;2022-07-29T01:00:58;11.57;;;4.40;;
28577;SDS011;15769;52.248;15.818;2022-07-29T01:06:00;15.53;;;5.20;;
28577;SDS011;15769;52.248;15.818;2022-07-29T01:16:11;15.60;;;4.85;;
28577;SDS011;15769;52.248;15.818;2022-07-29T01:21:40;15.45;;;4.88;;
28577;SDS011;15769;52.248;15.818;2022-07-29T01:32:33;19.73;;;6.40;;
28577;SDS011;15769;52.248;15.818;2022-07-29T01:37:39;27.85;;;8.23;;
28577;SDS011;15769;52.248;15.818;2022-07-29T01:42:48;33.97;;;9.60;;
28577;SDS011;15769;52.248;15.818;2022-07-29T01:47:59;26.17;;;8.13;;
28577;SDS011;15769;52.248;15.818;2022-07-29T01:53:06;22.58;;;7.72;;
28577;SDS011;15769;52.248;15.818;2022-07-29T01:58:21;17.20;;;6.15;;
28577;SDS011;15769;52.248;15.818;2022-07-29T02:03:26;17.88;;;6.15;;
28577;SDS011;15769;52.248;15.818;2022-07-29T02:08:29;15.95;;;5.78;;
28577;SDS011;15769;52.248;15.818;2022-07-29T02:13:34;17.70;;;6.28;;
28577;SDS011;15769;52.248;15.818;2022-07-29T02:18:40;18.95;;;6.82;;
28577;SDS011;15769;52.248;15.818;2022-07-29T02:23:45;14.82;;;5.07;;
28577;SDS011;15769;52.248;15.818;2022-07-29T02:28:54;10.10;;;4.40;;
28577;SDS011;15769;52.248;15.818;2022-07-29T02:33:58;10.40;;;3.90;;
28577;SDS011;15769;52.248;15.818;2022-07-29T02:39:03;7.32;;;3.53;;
28577;SDS011;15769;52.248;15.818;2022-07-29T02:44:10;7.03;;;3.60;;
28577;SDS011;15769;52.248;15.818;2022-07-29T02:49:40;7.10;;;3.55;;
28577;SDS011;15769;52.248;15.818;2022-07-29T02:54:50;4.47;;;3.10;;
28577;SDS011;15769;52.248;15.818;2022-07-29T02:59:57;8.27;;;3.30;;
28577;SDS011;15769;52.248;15.818;2022-07-29T03:05:01;8.68;;;3.42;;
28577;SDS011;15769;52.248;15.818;2022-07-29T03:10:17;6.55;;;3.05;;
28577;SDS011;15769;52.248;15.818;2022-07-29T03:15:25;10.65;;;5.03;;
28577;SDS011;15769;52.248;15.818;2022-07-29T03:20:56;8.13;;;3.80;;
28577;SDS011;15769;52.248;15.818;2022-07-29T03:25:59;6.60;;;3.50;;
28577;SDS011;15769;52.248;15.818;2022-07-29T03:31:03;6.68;;;3.40;;
28577;SDS011;15769;52.248;15.818;2022-07-29T03:36:09;6.28;;;3.17;;
28577;SDS011;15769;52.248;15.818;2022-07-29T03:41:11;5.00;;;3.65;;
28577;SDS011;15769;52.248;15.818;2022-07-29T03:46:17;7.45;;;4.10;;
28577;SDS011;15769;52.248;15.818;2022-07-29T03:51:25;7.70;;;4.95;;
28577;SDS011;15769;52.248;15.818;2022-07-29T03:56:40;9.18;;;4.30;;
28577;SDS011;15769;52.248;15.818;2022-07-29T04:01:45;9.48;;;3.88;;
28577;SDS011;15769;52.248;15.818;2022-07-29T04:06:50;10.52;;;3.78;;
28577;SDS011;15769;52.248;15.818;2022-07-29T04:11:54;5.97;;;3.03;;
28577;SDS011;15769;52.248;15.818;2022-07-29T04:17:04;8.35;;;3.75;;
28577;SDS011;15769;52.248;15.818;2022-07-29T04:22:07;7.87;;;3.53;;
28577;SDS011;15769;52.248;15.818;2022-07-29T04:27:09;9.50;;;3.25;;
28577;SDS011;15769;52.248;15.818;2022-07-29T04:32:11;6.37;;;3.43;;
28577;SDS011;15769;52.248;15.818;2022-07-29T04:37:20;9.63;;;3.10;;
28577;SDS011;15769;52.248;15.818;2022-07-29T04:43:02;6.95;;;3.22;;
28577;SDS011;15769;52.248;15.818;2022-07-29T04:48:08;6.65;;;3.33;;
28577;SDS011;15769;52.248;15.818;2022-07-29T04:53:11;6.60;;;3.25;;
28577;SDS011;15769;52.248;15.818;2022-07-29T04:58:29;7.95;;;3.28;;
28577;SDS011;15769;52.248;15.818;2022-07-29T05:03:32;7.55;;;3.33;;
28577;SDS011;15769;52.248;15.818;2022-07-29T05:08:35;8.87;;;4.50;;
28577;SDS011;15769;52.248;15.818;2022-07-29T05:13:44;6.72;;;3.17;;
28577;SDS011;15769;52.248;15.818;2022-07-29T05:19:04;4.93;;;2.65;;
28577;SDS011;15769;52.248;15.818;2022-07-29T05:24:20;8.32;;;3.30;;
28577;SDS011;15769;52.248;15.818;2022-07-29T05:29:44;6.93;;;2.88;;
28577;SDS011;15769;52.248;15.818;2022-07-29T05:34:56;7.28;;;3.10;;
28577;SDS011;15769;52.248;15.818;2022-07-29T05:39:58;9.77;;;3.63;;
28577;SDS011;15769;52.248;15.818;2022-07-29T05:45:10;4.63;;;2.88;;
28577;SDS011;15769;52.248;15.818;2022-07-29T05:50:42;7.63;;;2.83;;
28577;SDS011;15769;52.248;15.818;2022-07-29T05:55:48;6.13;;;3.05;;
28577;SDS011;15769;52.248;15.818;2022-07-29T06:01:04;8.23;;;3.08;;
28577;SDS011;15769;52.248;15.818;2022-07-29T06:06:07;7.60;;;2.50;;
28577;SDS011;15769;52.248;15.818;2022-07-29T06:11:14;5.03;;;2.60;;
28577;SDS011;15769;52.248;15.818;2022-07-29T06:16:17;5.43;;;2.80;;
28577;SDS011;15769;52.248;15.818;2022-07-29T06:21:45;4.28;;;2.42;;
28577;SDS011;15769;52.248;15.818;2022-07-29T06:26:59;5.03;;;2.60;;
28577;SDS011;15769;52.248;15.818;2022-07-29T06:32:11;8.10;;;2.78;;
28577;SDS011;15769;52.248;15.818;2022-07-29T06:37:22;4.57;;;2.25;;
28577;SDS011;15769;52.248;15.818;2022-07-29T06:42:41;5.50;;;2.28;;
28577;SDS011;15769;52.248;15.818;2022-07-29T06:47:47;6.25;;;2.42;;
28577;SDS011;15769;52.248;15.818;2022-07-29T06:52:53;4.82;;;2.47;;
28577;SDS011;15769;52.248;15.818;2022-07-29T06:58:14;8.70;;;2.47;;
28577;SDS011;15769;52.248;15.818;2022-07-29T07:04:04;5.07;;;2.40;;
28577;SDS011;15769;52.248;15.818;2022-07-29T07:09:31;4.72;;;2.28;;
28577;SDS011;15769;52.248;15.818;2022-07-29T07:14:45;7.53;;;2.20;;
28577;SDS011;15769;52.248;15.818;2022-07-29T07:19:56;5.70;;;2.47;;
28577;SDS011;15769;52.248;15.818;2022-07-29T07:25:05;6.07;;;2.15;;
28577;SDS011;15769;52.248;15.818;2022-07-29T07:30:23;6.50;;;2.28;;
28577;SDS011;15769;52.248;15.818;2022-07-29T07:35:46;8.73;;;2.25;;
28577;SDS011;15769;52.248;15.818;2022-07-29T07:41:09;4.30;;;2.25;;
28577;SDS011;15769;52.248;15.818;2022-07-29T07:46:18;4.70;;;2.17;;
28577;SDS011;15769;52.248;15.818;2022-07-29T07:51:24;4.53;;;2.25;;
28577;SDS011;15769;52.248;15.818;2022-07-29T07:56:36;3.42;;;1.70;;
28577;SDS011;15769;52.248;15.818;2022-07-29T08:01:55;2.13;;;1.63;;
28577;SDS011;15769;52.248;15.818;2022-07-29T08:07:02;5.90;;;2.33;;
28577;SDS011;15769;52.248;15.818;2022-07-29T08:12:14;3.95;;;2.00;;
28577;SDS011;15769;52.248;15.818;2022-07-29T08:18:00;5.22;;;1.95;;
28577;SDS011;15769;52.248;15.818;2022-07-29T08:23:22;8.23;;;2.13;;
28577;SDS011;15769;52.248;15.818;2022-07-29T08:28:50;3.63;;;1.75;;
28577;SDS011;15769;52.248;15.818;2022-07-29T08:34:09;4.70;;;1.77;;
28577;SDS011;15769;52.248;15.818;2022-07-29T08:39:17;3.40;;;2.10;;
28577;SDS011;15769;52.248;15.818;2022-07-29T08:44:26;4.30;;;1.50;;
28577;SDS011;15769;52.248;15.818;2022-07-29T08:49:51;4.13;;;1.90;;
28577;SDS011;15769;52.248;15.818;2022-07-29T08:54:56;7.32;;;1.70;;
28577;SDS011;15769;52.248;15.818;2022-07-29T09:00:15;5.43;;;1.60;;
28577;SDS011;15769;52.248;15.818;2022-07-29T09:05:23;7.05;;;2.15;;
28577;SDS011;15769;52.248;15.818;2022-07-29T09:10:27;9.48;;;2.17;;
28577;SDS011;15769;52.248;15.818;2022-07-29T09:15:57;5.00;;;1.55;;
28577;SDS011;15769;52.248;15.818;2022-07-29T09:21:14;3.40;;;1.52;;
28577;SDS011;15769;52.248;15.818;2022-07-29T09:26:43;4.65;;;1.88;;
28577;SDS011;15769;52.248;15.818;2022-07-29T09:31:48;6.38;;;1.92;;
28577;SDS011;15769;52.248;15.818;2022-07-29T09:37:09;4.80;;;1.60;;
28577;SDS011;15769;52.248;15.818;2022-07-29T09:42:12;2.60;;;1.40;;
28577;SDS011;15769;52.248;15.818;2022-07-29T09:47:21;2.33;;;1.33;;
28577;SDS011;15769;52.248;15.818;2022-07-29T09:52:52;4.88;;;1.33;;
28577;SDS011;15769;52.248;15.818;2022-07-29T09:58:16;8.10;;;1.65;;
28577;SDS011;15769;52.248;15.818;2022-07-29T10:03:22;4.15;;;1.52;;
28577;SDS011;15769;52.248;15.818;2022-07-29T10:08:27;7.35;;;1.50;;
28577;SDS011;15769;52.248;15.818;2022-07-29T10:13:31;5.30;;;1.70;;
28577;SDS011;15769;52.248;15.818;2022-07-29T10:18:34;4.45;;;1.85;;
28577;SDS011;15769;52.248;15.818;2022-07-29T10:23:41;4.28;;;1.45;;
28577;SDS011;15769;52.248;15.818;2022-07-29T10:28:51;4.75;;;1.60;;
28577;SDS011;15769;52.248;15.818;2022-07-29T10:34:22;5.38;;;1.83;;
28577;SDS011;15769;52.248;15.818;2022-07-29T10:45:49;7.07;;;2.08;;
28577;SDS011;15769;52.248;15.818;2022-07-29T10:51:25;3.13;;;1.70;;
28577;SDS011;15769;52.248;15.818;2022-07-29T10:56:53;2.22;;;1.70;;
28577;SDS011;15769;52.248;15.818;2022-07-29T11:02:00;4.15;;;1.50;;
28577;SDS011;15769;52.248;15.818;2022-07-29T11:07:23;2.67;;;1.80;;
28577;SDS011;15769;52.248;15.818;2022-07-29T11:12:49;4.45;;;1.73;;
28577;SDS011;15769;52.248;15.818;2022-07-29T11:18:04;6.10;;;1.77;;
28577;SDS011;15769;52.248;15.818;2022-07-29T11:28:27;8.55;;;1.90;;
28577;SDS011;15769;52.248;15.818;2022-07-29T11:45:20;3.40;;;1.75;;
28577;SDS011;15769;52.248;15.818;2022-07-29T11:50:48;4.45;;;1.80;;
28577;SDS011;15769;52.248;15.818;2022-07-29T11:55:56;2.22;;;1.80;;
28577;SDS011;15769;52.248;15.818;2022-07-29T12:01:21;18.77;;;2.40;;
28577;SDS011;15769;52.248;15.818;2022-07-29T12:06:30;5.15;;;1.80;;
28577;SDS011;15769;52.248;15.818;2022-07-29T12:11:41;7.68;;;1.83;;
28577;SDS011;15769;52.248;15.818;2022-07-29T12:16:52;3.15;;;1.70;;
28577;SDS011;15769;52.248;15.818;2022-07-29T12:22:08;3.20;;;1.70;;
28577;SDS011;15769;52.248;15.818;2022-07-29T12:27:18;4.03;;;1.77;;
28577;SDS011;15769;52.248;15.818;2022-07-29T12:32:52;3.33;;;1.52;;
28577;SDS011;15769;52.248;15.818;2022-07-29T12:38:20;5.47;;;1.77;;
28577;SDS011;15769;52.248;15.818;2022-07-29T12:43:26;4.68;;;1.35;;
28577;SDS011;15769;52.248;15.818;2022-07-29T12:48:42;4.80;;;1.80;;
28577;SDS011;15769;52.248;15.818;2022-07-29T12:54:02;3.65;;;1.60;;
28577;SDS011;15769;52.248;15.818;2022-07-29T12:59:20;5.38;;;1.80;;
28577;SDS011;15769;52.248;15.818;2022-07-29T13:04:55;4.85;;;1.83;;
28577;SDS011;15769;52.248;15.818;2022-07-29T13:10:15;3.95;;;1.60;;
28577;SDS011;15769;52.248;15.818;2022-07-29T13:16:08;3.10;;;1.77;;
28577;SDS011;15769;52.248;15.818;2022-07-29T13:21:19;5.70;;;1.58;;
28577;SDS011;15769;52.248;15.818;2022-07-29T13:27:06;4.40;;;1.98;;
28577;SDS011;15769;52.248;15.818;2022-07-29T13:32:30;7.95;;;1.80;;
28577;SDS011;15769;52.248;15.818;2022-07-29T13:38:01;5.13;;;1.90;;
28577;SDS011;15769;52.248;15.818;2022-07-29T13:43:10;2.90;;;1.70;;
28577;SDS011;15769;52.248;15.818;2022-07-29T13:48:33;4.32;;;1.95;;
28577;SDS011;15769;52.248;15.818;2022-07-29T13:54:02;5.32;;;1.98;;
28577;SDS011;15769;52.248;15.818;2022-07-29T13:59:29;3.45;;;1.67;;
28577;SDS011;15769;52.248;15.818;2022-07-29T14:04:46;3.95;;;1.90;;
28577;SDS011;15769;52.248;15.818;2022-07-29T14:10:11;3.53;;;1.73;;
28577;SDS011;15769;52.248;15.818;2022-07-29T14:15:52;2.83;;;1.67;;
28577;SDS011;15769;52.248;15.818;2022-07-29T14:20:57;4.38;;;1.83;;
28577;SDS011;15769;52.248;15.818;2022-07-29T14:26:00;2.53;;;1.60;;
28577;SDS011;15769;52.248;15.818;2022-07-29T14:31:26;2.25;;;1.67;;
28577;SDS011;15769;52.248;15.818;2022-07-29T14:36:30;2.40;;;1.83;;
28577;SDS011;15769;52.248;15.818;2022-07-29T14:41:34;3.33;;;1.77;;
28577;SDS011;15769;52.248;15.818;2022-07-29T14:46:40;2.35;;;1.48;;
28577;SDS011;15769;52.248;15.818;2022-07-29T14:52:06;4.15;;;1.85;;
28577;SDS011;15769;52.248;15.818;2022-07-29T14:57:33;3.95;;;2.00;;
28577;SDS011;15769;52.248;15.818;2022-07-29T15:03:22;2.55;;;1.52;;
28577;SDS011;15769;52.248;15.818;2022-07-29T15:08:40;2.33;;;1.60;;
28577;SDS011;15769;52.248;15.818;2022-07-29T15:13:45;2.65;;;1.60;;
28577;SDS011;15769;52.248;15.818;2022-07-29T15:18:47;4.90;;;3.17;;
28577;SDS011;15769;52.248;15.818;2022-07-29T15:23:55;19.02;;;16.55;;
28577;SDS011;15769;52.248;15.818;2022-07-29T15:29:02;6.65;;;5.90;;
28577;SDS011;15769;52.248;15.818;2022-07-29T15:34:05;3.20;;;1.98;;
28577;SDS011;15769;52.248;15.818;2022-07-29T15:39:11;4.10;;;2.30;;
28577;SDS011;15769;52.248;15.818;2022-07-29T15:44:15;3.80;;;2.25;;
28577;SDS011;15769;52.248;15.818;2022-07-29T15:49:19;5.35;;;2.42;;
28577;SDS011;15769;52.248;15.818;2022-07-29T15:54:25;5.65;;;2.30;;
28577;SDS011;15769;52.248;15.818;2022-07-29T15:59:30;4.22;;;1.80;;
28577;SDS011;15769;52.248;15.818;2022-07-29T16:04:34;3.17;;;2.10;;
28577;SDS011;15769;52.248;15.818;2022-07-29T16:14:43;5.95;;;3.28;;
28577;SDS011;15769;52.248;15.818;2022-07-29T16:19:45;4.32;;;2.28;;
28577;SDS011;15769;52.248;15.818;2022-07-29T16:24:48;4.05;;;2.22;;
28577;SDS011;15769;52.248;15.818;2022-07-29T16:29:55;3.33;;;1.85;;
28577;SDS011;15769;52.248;15.818;2022-07-29T16:35:00;5.45;;;2.17;;
28577;SDS011;15769;52.248;15.818;2022-07-29T16:40:08;3.67;;;1.80;;
28577;SDS011;15769;52.248;15.818;2022-07-29T16:45:13;6.00;;;2.00;;
28577;SDS011;15769;52.248;15.818;2022-07-29T16:50:16;4.78;;;2.00;;
28577;SDS011;15769;52.248;15.818;2022-07-29T17:00:22;6.82;;;1.75;;
28577;SDS011;15769;52.248;15.818;2022-07-29T17:05:25;3.97;;;1.85;;
28577;SDS011;15769;52.248;15.818;2022-07-29T17:10:51;2.72;;;1.45;;
28577;SDS011;15769;52.248;15.818;2022-07-29T17:15:56;2.20;;;1.52;;
28577;SDS011;15769;52.248;15.818;2022-07-29T17:21:02;2.45;;;1.75;;
28577;SDS011;15769;52.248;15.818;2022-07-29T17:26:04;2.80;;;1.88;;
28577;SDS011;15769;52.248;15.818;2022-07-29T17:31:07;3.65;;;1.80;;
28577;SDS011;15769;52.248;15.818;2022-07-29T17:36:10;4.15;;;1.80;;
28577;SDS011;15769;52.248;15.818;2022-07-29T17:41:30;2.30;;;1.67;;
28577;SDS011;15769;52.248;15.818;2022-07-29T17:46:33;5.90;;;1.95;;
28577;SDS011;15769;52.248;15.818;2022-07-29T17:51:36;4.15;;;1.83;;
28577;SDS011;15769;52.248;15.818;2022-07-29T18:01:42;3.15;;;1.73;;
28577;SDS011;15769;52.248;15.818;2022-07-29T18:11:47;1.75;;;1.40;;
28577;SDS011;15769;52.248;15.818;2022-07-29T18:16:49;3.67;;;1.65;;
28577;SDS011;15769;52.248;15.818;2022-07-29T18:26:56;2.13;;;1.50;;
28577;SDS011;15769;52.248;15.818;2022-07-29T18:31:59;2.83;;;1.70;;
28577;SDS011;15769;52.248;15.818;2022-07-29T18:37:03;1.55;;;1.30;;
28577;SDS011;15769;52.248;15.818;2022-07-29T18:42:08;3.60;;;1.33;;
28577;SDS011;15769;52.248;15.818;2022-07-29T18:47:10;7.07;;;1.80;;
28577;SDS011;15769;52.248;15.818;2022-07-29T18:52:15;4.38;;;1.92;;
28577;SDS011;15769;52.248;15.818;2022-07-29T18:57:18;1.92;;;1.48;;
28577;SDS011;15769;52.248;15.818;2022-07-29T19:02:42;6.32;;;1.92;;
28577;SDS011;15769;52.248;15.818;2022-07-29T19:07:45;7.75;;;2.88;;
28577;SDS011;15769;52.248;15.818;2022-07-29T19:12:48;6.53;;;2.80;;
28577;SDS011;15769;52.248;15.818;2022-07-29T19:17:50;6.90;;;2.63;;
28577;SDS011;15769;52.248;15.818;2022-07-29T19:22:53;4.53;;;2.53;;
28577;SDS011;15769;52.248;15.818;2022-07-29T19:27:58;5.63;;;2.10;;
28577;SDS011;15769;52.248;15.818;2022-07-29T19:33:01;5.78;;;2.03;;
28577;SDS011;15769;52.248;15.818;2022-07-29T19:38:05;6.50;;;2.13;;
28577;SDS011;15769;52.248;15.818;2022-07-29T19:43:09;3.17;;;1.80;;
28577;SDS011;15769;52.248;15.818;2022-07-29T19:48:31;2.47;;;1.80;;
28577;SDS011;15769;52.248;15.818;2022-07-29T19:53:34;5.53;;;1.75;;
28577;SDS011;15769;52.248;15.818;2022-07-29T19:58:38;4.32;;;1.77;;
28577;SDS011;15769;52.248;15.818;2022-07-29T20:03:42;4.63;;;1.80;;
28577;SDS011;15769;52.248;15.818;2022-07-29T20:08:45;5.50;;;1.60;;
28577;SDS011;15769;52.248;15.818;2022-07-29T20:13:48;2.22;;;1.50;;
28577;SDS011;15769;52.248;15.818;2022-07-29T20:23:55;4.50;;;1.98;;
28577;SDS011;15769;52.248;15.818;2022-07-29T20:29:01;3.80;;;1.80;;
28577;SDS011;15769;52.248;15.818;2022-07-29T20:34:09;4.85;;;1.60;;
28577;SDS011;15769;52.248;15.818;2022-07-29T20:39:12;5.35;;;2.05;;
28577;SDS011;15769;52.248;15.818;2022-07-29T20:44:16;4.00;;;1.80;;
28577;SDS011;15769;52.248;15.818;2022-07-29T20:49:20;4.47;;;1.65;;
28577;SDS011;15769;52.248;15.818;2022-07-29T20:54:24;5.20;;;1.70;;
28577;SDS011;15769;52.248;15.818;2022-07-29T20:59:26;1.90;;;1.55;;
28577;SDS011;15769;52.248;15.818;2022-07-29T21:04:28;4.70;;;1.80;;
28577;SDS011;15769;52.248;15.818;2022-07-29T21:09:34;4.03;;;2.20;;
28577;SDS011;15769;52.248;15.818;2022-07-29T21:14:38;3.92;;;2.25;;
28577;SDS011;15769;52.248;15.818;2022-07-29T21:19:42;5.20;;;2.15;;
28577;SDS011;15769;52.248;15.818;2022-07-29T21:24:44;3.58;;;1.63;;
28577;SDS011;15769;52.248;15.818;2022-07-29T21:29:48;2.97;;;1.40;;
28577;SDS011;15769;52.248;15.818;2022-07-29T21:34:51;2.38;;;1.73;;
28577;SDS011;15769;52.248;15.818;2022-07-29T21:39:53;4.18;;;1.75;;
28577;SDS011;15769;52.248;15.818;2022-07-29T21:44:59;2.30;;;1.75;;
28577;SDS011;15769;52.248;15.818;2022-07-29T21:50:06;4.72;;;2.10;;
28577;SDS011;15769;52.248;15.818;2022-07-29T21:55:09;2.33;;;1.95;;
28577;SDS011;15769;52.248;15.818;2022-07-29T22:00:12;5.63;;;1.92;;
28577;SDS011;15769;52.248;15.818;2022-07-29T22:05:17;5.13;;;2.10;;
28577;SDS011;15769;52.248;15.818;2022-07-29T22:10:20;4.45;;;1.90;;
28577;SDS011;15769;52.248;15.818;2022-07-29T22:15:23;2.38;;;1.90;;
28577;SDS011;15769;52.248;15.818;2022-07-29T22:20:27;2.42;;;1.60;;
28577;SDS011;15769;52.248;15.818;2022-07-29T22:25:29;4.20;;;1.73;;
28577;SDS011;15769;52.248;15.818;2022-07-29T22:30:32;3.88;;;1.88;;
28577;SDS011;15769;52.248;15.818;2022-07-29T22:35:34;2.80;;;1.98;;
28577;SDS011;15769;52.248;15.818;2022-07-29T22:40:37;6.50;;;2.10;;
28577;SDS011;15769;52.248;15.818;2022-07-29T22:45:39;6.28;;;2.03;;
28577;SDS011;15769;52.248;15.818;2022-07-29T22:50:42;7.45;;;2.42;;
28577;SDS011;15769;52.248;15.818;2022-07-29T22:55:44;3.90;;;1.80;;
28577;SDS011;15769;52.248;15.818;2022-07-29T23:00:48;4.38;;;1.70;;
28577;SDS011;15769;52.248;15.818;2022-07-29T23:05:52;3.97;;;2.10;;
28577;SDS011;15769;52.248;15.818;2022-07-29T23:10:57;3.10;;;2.10;;
28577;SDS011;15769;52.248;15.818;2022-07-29T23:16:01;6.15;;;2.03;;
28577;SDS011;15769;52.248;15.818;2022-07-29T23:21:03;3.90;;;1.95;;
28577;SDS011;15769;52.248;15.818;2022-07-29T23:26:06;3.37;;;2.10;;
28577;SDS011;15769;52.248;15.818;2022-07-29T23:31:09;2.35;;;1.95;;
28577;SDS011;15769;52.248;15.818;2022-07-29T23:36:12;8.10;;;2.30;;
28577;SDS011;15769;52.248;15.818;2022-07-29T23:41:14;4.73;;;1.93;;
28577;SDS011;15769;52.248;15.818;2022-07-29T23:46:17;5.13;;;2.33;;
28577;SDS011;15769;52.248;15.818;2022-07-29T23:51:25;3.05;;;2.17;;
28577;SDS011;15769;52.248;15.818;2022-07-29T23:56:27;5.07;;;2.40;;
